Airfield :
LOGIN :

Register | Disclaimer

   EN    FR    IT 

 










Legend :    VFR   Marginal VFR   IFR   Intensive IFR   Very Intensive IFR
Visi :
Ceiling :
>= 8 km
>= 3000ft
5 to 8 km
1000 to 3000 ft
1500m to 5 km
500 to 1000 ft
800 to 1500m
200 to 500 ft
< 800m
< 200 ft
Symbols :   Thunderstorms  Fog  Heavy snow  Heavy precipitations  Wind > 20 kt
SIGMETs :     Misc.  Thunderstorms  Icing  Turbulence  Mountain Waves  Volcanic Ashes







- Airport Elevation : 160 ft
- IATA code : FMO


EDDG - Münster Osnabrück Int.

CURRENT METAR :
  • 251550Z 33013G24KT 290V360 9999 -SHRA SCT022CB BKN040 07/04 Q1022 NOSIG

EXPIRED METARs :
  • 251520Z 33011KT 300V360 9999 SCT022CB BKN030 06/04 Q1021 NOSIG
  • 251450Z 35012G22KT 300V060 9999 SHRA SCT022CB BKN030 07/04 Q1021 BECMG NSW
  • 251420Z 32012KT 280V360 9000 -SHRA SCT022CB BKN030 07/03 Q1020 TEMPO SHRA
  • 251350Z 32009KT 270V350 9999 -SHRA SCT018CB BKN025 07/04 Q1020 RESHGS TEMPO SHRA
  • 251320Z 31009KT 280V350 9999 -SHRA BKN025CB BKN030 06/04 Q1020 RETSGS NOSIG

TAF TAF EDDG
Valid from the 25 at 12:00 until the 26 at 12:00 UTC


251100Z 2512/2612 30015G25KT 9999 SCT020
TEMPO 2512/2516 32020G35KT SHRA BKN015CB
PROB30
TEMPO 2512/2515 3000 TSGS BKN013CB
BECMG 2515/2518 32012KT
BECMG 2518/2521 30007KT
TEMPO 2601/2608 BKN010
No reported NOTAMs for that airfield.



MET'MAP, your aeronautical weather chart ! - Copyright ORBIFLY December 2007 - Disclaimer

ORBIFLY MET'MAP TEAM :

Programming & Development : Alexandra Zaïnal
Concept & Development : Baudouin d'Aumeries
Co-Development & Prog : Marc-Olivier Méhu
Technical & hardware support : Manuel Goepfert

Contact : metmap@orbifly.com




SOURCES & CREDITS :

   NOAA